createdAt,value
2022-08-18T00:00:00.000Z,23.84
2022-08-18T00:15:00.000Z,23.82
2022-08-18T00:30:00.000Z,24.17
2022-08-18T00:45:00.000Z,24.25
2022-08-18T01:00:00.000Z,24.03
2022-08-18T01:15:00.000Z,23.74
2022-08-18T01:30:00.000Z,23.49
2022-08-18T01:45:00.000Z,23.28
2022-08-18T02:15:00.000Z,22.93
2022-08-18T02:15:00.000Z,22.85
2022-08-18T02:30:00.000Z,22.59
2022-08-18T02:45:00.000Z,22.33
2022-08-18T03:00:00.000Z,22.34
2022-08-18T03:15:00.000Z,22.3
2022-08-18T03:30:00.000Z,21.78
2022-08-18T03:45:00.000Z,21.39
2022-08-18T04:00:00.000Z,21.25
2022-08-18T04:15:00.000Z,21.21
2022-08-18T04:30:00.000Z,21.21
2022-08-18T04:45:00.000Z,21.37
2022-08-18T05:00:00.000Z,21.79
2022-08-18T05:15:00.000Z,22.31
2022-08-18T05:30:00.000Z,23.28
2022-08-18T05:45:00.000Z,23.52
2022-08-18T06:00:00.000Z,23.46
2022-08-18T06:15:00.000Z,23.84
2022-08-18T06:30:00.000Z,23.41
2022-08-18T06:45:00.000Z,23.26
2022-08-18T07:00:00.000Z,23
2022-08-18T07:15:00.000Z,23.05
2022-08-18T07:30:00.000Z,23.37
2022-08-18T07:45:00.000Z,24
2022-08-18T08:00:00.000Z,24.66
2022-08-18T08:15:00.000Z,25.3
2022-08-18T08:30:00.000Z,26.45
2022-08-18T08:45:00.000Z,27.22
2022-08-18T09:00:00.000Z,30.1
2022-08-18T09:15:00.000Z,30.87
2022-08-18T09:30:00.000Z,31.53
2022-08-18T09:45:00.000Z,32.09
2022-08-18T10:00:00.000Z,29.81
2022-08-18T10:15:00.000Z,31.79
2022-08-18T10:30:00.000Z,32.36
2022-08-18T10:45:00.000Z,31.95
2022-08-18T11:00:00.000Z,31.03
2022-08-18T11:15:00.000Z,29.42
2022-08-18T11:30:00.000Z,28.89
2022-08-18T11:45:00.000Z,28.97
2022-08-18T12:00:00.000Z,29.33
2022-08-18T12:15:00.000Z,29.4
2022-08-18T12:30:00.000Z,29.76
2022-08-18T12:45:00.000Z,29.35
2022-08-18T13:00:00.000Z,28.95
2022-08-18T13:15:00.000Z,28.59
2022-08-18T13:30:00.000Z,28.4
2022-08-18T13:45:00.000Z,27.45
2022-08-18T14:00:00.000Z,27.17
2022-08-18T14:15:00.000Z,27.21
2022-08-18T14:30:00.000Z,27.16
2022-08-18T14:45:00.000Z,27.53
2022-08-18T15:00:00.000Z,27.66
2022-08-18T15:15:00.000Z,27.71
2022-08-18T15:30:00.000Z,27.76
2022-08-18T15:45:00.000Z,27.75
2022-08-18T16:00:00.000Z,27.96
2022-08-18T16:15:00.000Z,27.8
2022-08-18T16:30:00.000Z,27.61
2022-08-18T16:45:00.000Z,27.41
2022-08-18T17:00:00.000Z,27.14
2022-08-18T17:15:00.000Z,26.74
2022-08-18T17:30:00.000Z,26.25
2022-08-18T17:45:00.000Z,25.92
2022-08-18T18:00:00.000Z,25.51
2022-08-18T18:15:00.000Z,25.12
2022-08-18T18:30:00.000Z,24.68
2022-08-18T18:45:00.000Z,24.45
2022-08-18T19:00:00.000Z,24.23
2022-08-18T19:15:00.000Z,23.79
2022-08-18T19:30:00.000Z,23.77
2022-08-18T19:45:00.000Z,23.83
2022-08-18T20:00:00.000Z,23.54
2022-08-18T20:15:00.000Z,23.28
2022-08-18T20:30:00.000Z,24
2022-08-18T20:45:00.000Z,24.08
2022-08-18T21:00:00.000Z,23.57
2022-08-18T21:15:00.000Z,23.15
2022-08-18T21:30:00.000Z,22.99
2022-08-18T21:45:00.000Z,22.97
2022-08-18T22:00:00.000Z,22.59
2022-08-18T22:15:00.000Z,22.39
2022-08-18T22:30:00.000Z,22.3
2022-08-18T22:45:00.000Z,22.29
2022-08-18T23:00:00.000Z,22.1
2022-08-18T23:15:00.000Z,21.76
2022-08-18T23:30:00.000Z,21.62
2022-08-18T23:45:00.000Z,21.52
